createdAt,value
2024-03-31T00:09:16.734Z,77.62
2024-03-31T00:18:53.767Z,77.43
2024-03-31T00:28:30.354Z,77.91
2024-03-31T00:38:07.137Z,77.63
2024-03-31T00:47:44.274Z,75.99
2024-03-31T00:57:21.364Z,78.2
2024-03-31T01:06:58.254Z,79.68
2024-03-31T01:45:26.301Z,81.12
2024-03-31T01:55:03.274Z,81.75
2024-03-31T02:04:40.146Z,82.03
2024-03-31T02:14:17.610Z,82.03
2024-03-31T02:23:54.747Z,81.84
2024-03-31T02:33:32.119Z,82.29
2024-03-31T02:43:09.192Z,81.45
2024-03-31T02:52:48.445Z,81.84
2024-03-31T03:02:26.594Z,81.38
2024-03-31T03:12:01.395Z,81.22
2024-03-31T03:21:38.241Z,80.65
2024-03-31T03:31:15.405Z,81.39
2024-03-31T03:40:52.329Z,82.32
2024-03-31T03:50:29.145Z,81.86
2024-03-31T04:00:06.109Z,82.6
2024-03-31T04:09:43.372Z,82.17
2024-03-31T04:19:19.964Z,81.88
2024-03-31T04:28:56.978Z,81.58
2024-03-31T04:38:34.035Z,82.11
2024-03-31T04:48:11.001Z,82.63
2024-03-31T04:57:48.272Z,82.86
2024-03-31T05:07:25.312Z,82.72
2024-03-31T05:17:02.187Z,82.55
2024-03-31T05:26:39.206Z,82.98
2024-03-31T05:36:18.784Z,83.36
2024-03-31T05:45:54.004Z,83.2
2024-03-31T05:55:31.519Z,82.78
2024-03-31T06:05:08.702Z,82.51
2024-03-31T06:14:46.087Z,82.58
2024-03-31T06:24:23.369Z,82.16
2024-03-31T06:34:00.835Z,81.57
2024-03-31T06:43:39.661Z,78.54
2024-03-31T06:53:18.566Z,74.93
2024-03-31T07:12:32.626Z,74.24
2024-03-31T07:22:10.628Z,72.33
2024-03-31T07:31:48.395Z,71.47
2024-03-31T07:41:26.581Z,69.94
2024-03-31T07:51:04.737Z,68.02
2024-03-31T08:19:58.807Z,63.62
2024-03-31T08:29:37.168Z,61.55
2024-03-31T08:39:15.781Z,60.61
2024-03-31T08:48:54.015Z,58.92
2024-03-31T08:58:31.000Z,58.39
2024-03-31T09:08:11.148Z,56.93
2024-03-31T09:17:48.667Z,55.54
2024-03-31T09:27:27.815Z,56.29
2024-03-31T09:37:07.099Z,55.09
2024-03-31T09:46:46.157Z,53.76
2024-03-31T09:56:25.106Z,54
2024-03-31T10:06:05.311Z,52.51
2024-03-31T10:15:45.921Z,51.61
2024-03-31T10:25:23.898Z,50.06
2024-03-31T10:35:02.460Z,51.57
2024-03-31T10:44:39.435Z,52.63
2024-03-31T10:54:20.169Z,49.68
2024-03-31T11:03:58.002Z,46.73
2024-03-31T11:13:33.017Z,51.53
2024-03-31T11:23:09.618Z,51.61
2024-03-31T11:42:44.557Z,45.32
2024-03-31T11:52:23.920Z,43.67
2024-03-31T12:01:55.410Z,45.35
2024-03-31T12:11:38.548Z,43.78
2024-03-31T12:21:16.112Z,39.88
2024-03-31T12:30:53.762Z,41.25
2024-03-31T12:40:28.462Z,40.85
2024-03-31T12:50:14.506Z,40.51
2024-03-31T12:59:53.131Z,40.08
2024-03-31T13:09:37.205Z,39.61
2024-03-31T13:19:27.268Z,38.94
2024-03-31T13:29:00.983Z,36.46
2024-03-31T13:48:24.565Z,34.23
2024-03-31T13:57:52.538Z,37.58
2024-03-31T14:07:26.541Z,39.75
2024-03-31T14:26:48.016Z,35.78
2024-03-31T14:36:26.125Z,36.33
2024-03-31T14:45:55.751Z,39.21
2024-03-31T14:55:24.397Z,40.71
2024-03-31T15:05:08.679Z,43.95
2024-03-31T15:14:42.919Z,43.87
2024-03-31T15:24:28.870Z,43.02
2024-03-31T15:43:53.978Z,42.94
2024-03-31T15:53:26.336Z,44.21
2024-03-31T16:02:54.989Z,47.62
2024-03-31T16:12:28.413Z,49.52
2024-03-31T16:22:02.105Z,52.1
2024-03-31T16:31:37.270Z,53.41
2024-03-31T16:41:13.186Z,56.13
2024-03-31T16:50:49.340Z,58.11
2024-03-31T17:00:25.397Z,59.58
2024-03-31T17:10:01.768Z,60.88
2024-03-31T17:19:38.079Z,62.02
2024-03-31T17:29:15.037Z,62.84
2024-03-31T17:38:51.603Z,63.59
2024-03-31T17:48:28.590Z,64.46
2024-03-31T17:58:05.280Z,65.4
2024-03-31T18:07:42.287Z,66.5
2024-03-31T18:17:18.875Z,66.55
2024-03-31T18:26:55.985Z,67.23
2024-03-31T18:36:33.315Z,67.77
2024-03-31T18:46:10.868Z,68
2024-03-31T18:55:47.447Z,69.39
2024-03-31T19:05:24.355Z,69.44
2024-03-31T19:15:01.224Z,70.04
2024-03-31T19:24:37.887Z,71.67
2024-03-31T19:34:14.960Z,72.76
2024-03-31T19:43:51.874Z,73.31
2024-03-31T19:53:28.872Z,73.85
2024-03-31T20:03:05.770Z,73.69
2024-03-31T20:12:43.022Z,73.79
2024-03-31T20:22:19.669Z,75.58
2024-03-31T20:51:09.442Z,80.86
2024-03-31T21:00:45.854Z,82.74
2024-03-31T21:10:22.361Z,82.28
2024-03-31T21:19:59.025Z,84.25
2024-03-31T21:29:35.598Z,86.44
2024-03-31T21:39:12.639Z,85.35
2024-03-31T21:48:49.543Z,86.17
2024-03-31T22:08:02.794Z,88.51
2024-03-31T22:17:39.854Z,88.42
2024-03-31T22:27:16.482Z,89.21
2024-03-31T22:36:53.364Z,88.73
2024-03-31T22:46:29.702Z,89.8
2024-03-31T22:56:06.787Z,90.09
2024-03-31T23:05:43.394Z,90.91
2024-03-31T23:15:20.252Z,91.03
2024-03-31T23:24:56.999Z,92.44
2024-03-31T23:34:34.080Z,93.42
2024-03-31T23:44:10.779Z,92.79
2024-03-31T23:53:47.604Z,92.88
